createdAt,value
2023-04-18T00:00:58.055Z,101004.20
2023-04-18T00:03:30.309Z,101003.73
2023-04-18T00:06:02.723Z,101002.19
2023-04-18T00:08:34.716Z,100998.03
2023-04-18T00:11:06.288Z,100997.71
2023-04-18T00:13:38.619Z,100997.33
2023-04-18T00:16:13.503Z,100995.75
2023-04-18T00:18:45.093Z,100987.68
2023-04-18T00:21:16.977Z,100987.23
2023-04-18T00:23:48.400Z,100986.90
2023-04-18T00:26:19.928Z,100985.52
2023-04-18T00:28:52.036Z,100985.58
2023-04-18T00:31:23.406Z,100981.76
2023-04-18T00:33:55.638Z,100984.65
2023-04-18T00:36:28.445Z,100983.58
2023-04-18T00:39:00.156Z,100984.03
2023-04-18T00:41:32.814Z,100981.27
2023-04-18T00:44:04.776Z,100984.43
2023-04-18T00:46:36.123Z,100978.03
2023-04-18T00:49:07.747Z,100978.38
2023-04-18T00:51:40.118Z,100979.01
2023-04-18T00:54:13.898Z,100974.60
2023-04-18T00:56:46.113Z,100972.59
2023-04-18T00:59:17.780Z,100971.98
2023-04-18T01:01:50.236Z,100969.69
2023-04-18T01:04:21.763Z,100969.20
2023-04-18T01:06:53.134Z,100971.95
2023-04-18T01:09:27.342Z,100972.26
2023-04-18T01:11:58.805Z,100966.93
2023-04-18T01:14:31.034Z,100967.85
2023-04-18T01:17:03.031Z,100967.48
2023-04-18T01:19:38.075Z,100968.27
2023-04-18T01:22:11.964Z,100967.78
2023-04-18T01:24:46.157Z,100963.55
2023-04-18T01:27:17.580Z,100963.48
2023-04-18T01:29:49.267Z,100963.52
2023-04-18T01:32:20.847Z,100960.55
2023-04-18T01:34:52.504Z,100958.58
2023-04-18T01:37:23.913Z,100957.41
2023-04-18T01:39:55.399Z,100955.64
2023-04-18T01:42:27.057Z,100956.34
2023-04-18T01:44:58.880Z,100953.49
2023-04-18T01:47:30.062Z,100953.98
2023-04-18T01:50:01.830Z,100951.99
2023-04-18T01:52:33.267Z,100948.80
2023-04-18T01:55:06.247Z,100950.49
2023-04-18T01:57:37.871Z,100951.48
2023-04-18T02:00:11.399Z,100952.65
2023-04-18T02:02:50.398Z,100948.42
2023-04-18T02:05:22.701Z,100948.15
2023-04-18T02:07:54.392Z,100948.80
2023-04-18T02:10:26.407Z,100945.59
2023-04-18T02:12:57.743Z,100948.14
2023-04-18T02:15:29.852Z,100947.80
2023-04-18T02:18:01.591Z,100945.95
2023-04-18T02:20:34.008Z,100944.48
2023-04-18T02:23:06.798Z,100948.03
2023-04-18T02:25:37.903Z,100950.90
2023-04-18T02:28:09.634Z,100950.48
2023-04-18T02:30:41.253Z,100952.10
2023-04-18T02:33:13.064Z,100951.64
2023-04-18T02:35:44.535Z,100952.33
2023-04-18T02:38:16.095Z,100952.75
2023-04-18T02:40:47.664Z,100957.12
2023-04-18T02:43:18.896Z,100959.71
2023-04-18T02:45:50.595Z,100960.69
2023-04-18T02:48:22.025Z,100958.05
2023-04-18T02:50:53.678Z,100959.61
2023-04-18T02:53:25.259Z,100953.64
2023-04-18T02:55:58.712Z,100954.92
2023-04-18T02:58:37.111Z,100957.45
2023-04-18T03:01:29.018Z,100958.49
2023-04-18T03:04:12.949Z,100956.77
2023-04-18T03:06:49.238Z,100957.17
2023-04-18T03:09:21.400Z,100955.94
2023-04-18T03:11:55.428Z,100956.16
2023-04-18T03:14:29.930Z,100958.55
2023-04-18T03:17:01.818Z,100959.73
2023-04-18T03:19:37.684Z,100957.07
2023-04-18T03:22:12.760Z,100953.06
2023-04-18T03:24:49.168Z,100955.52
2023-04-18T03:27:22.477Z,100956.04
2023-04-18T03:29:54.490Z,100952.69
2023-04-18T03:32:26.512Z,100954.96
2023-04-18T03:34:58.086Z,100953.32
2023-04-18T03:37:29.524Z,100954.55
2023-04-18T03:40:01.102Z,100953.08
2023-04-18T03:42:34.445Z,100951.71
2023-04-18T03:45:06.900Z,100952.67
2023-04-18T03:47:39.400Z,100949.69
2023-04-18T03:50:12.288Z,100949.00
2023-04-18T03:52:43.942Z,100952.94
2023-04-18T03:55:16.629Z,100951.29
2023-04-18T03:57:48.184Z,100946.40
2023-04-18T04:00:25.910Z,100946.05
2023-04-18T04:03:03.702Z,100948.46
2023-04-18T04:05:35.869Z,100953.98
2023-04-18T04:08:07.689Z,100954.14
2023-04-18T04:10:39.576Z,100955.02
2023-04-18T04:13:11.539Z,100955.52
2023-04-18T04:15:43.461Z,100954.59
2023-04-18T04:18:15.205Z,100957.61
2023-04-18T04:20:49.146Z,100957.56
2023-04-18T04:23:31.203Z,100960.44
2023-04-18T04:26:04.253Z,100958.65
2023-04-18T04:28:58.648Z,100960.52
2023-04-18T04:31:32.120Z,100961.64
2023-04-18T04:34:05.076Z,100963.92
2023-04-18T04:36:37.387Z,100963.63
2023-04-18T04:39:11.564Z,100960.67
2023-04-18T04:42:03.989Z,100960.64
2023-04-18T04:44:42.814Z,100965.46
2023-04-18T04:47:15.060Z,100967.04
2023-04-18T04:49:46.321Z,100971.39
2023-04-18T04:52:17.722Z,100971.59
2023-04-18T04:54:49.108Z,100976.60
2023-04-18T04:57:22.095Z,100975.55
2023-04-18T04:59:53.876Z,100976.48
2023-04-18T05:02:27.664Z,100978.49
2023-04-18T05:04:58.891Z,100980.98
2023-04-18T05:07:30.246Z,100983.91
2023-04-18T05:10:01.908Z,100980.27
2023-04-18T05:12:33.498Z,100979.94
2023-04-18T05:15:05.654Z,100985.22
2023-04-18T05:17:37.232Z,100984.32
2023-04-18T05:20:10.612Z,100984.42
2023-04-18T05:22:42.543Z,100982.35
2023-04-18T05:25:14.475Z,100982.44
2023-04-18T05:27:46.780Z,100986.61
2023-04-18T05:30:18.424Z,100988.89
2023-04-18T05:32:50.552Z,100989.38
2023-04-18T05:35:22.042Z,100991.30
2023-04-18T05:37:53.499Z,100987.28
2023-04-18T05:40:24.749Z,100990.33
2023-04-18T05:42:56.524Z,100996.91
2023-04-18T05:45:28.254Z,100999.07
2023-04-18T05:47:59.900Z,101002.41
2023-04-18T05:50:31.282Z,101002.90
2023-04-18T05:53:02.838Z,101005.44
2023-04-18T05:55:35.451Z,101011.52
2023-04-18T05:58:07.069Z,101011.40
2023-04-18T06:00:38.549Z,101009.84
2023-04-18T06:03:11.325Z,101011.99
2023-04-18T06:05:43.712Z,101012.63
2023-04-18T06:08:15.769Z,101019.27
2023-04-18T06:10:47.324Z,101018.38
2023-04-18T06:13:18.757Z,101020.20
2023-04-18T06:15:50.066Z,101021.44
2023-04-18T06:18:22.100Z,101023.04
2023-04-18T06:20:53.495Z,101025.65
2023-04-18T06:23:25.055Z,101026.73
2023-04-18T06:25:57.080Z,101025.18
2023-04-18T06:28:28.984Z,101023.72
2023-04-18T06:31:00.540Z,101027.09
2023-04-18T06:33:32.279Z,101025.37
2023-04-18T06:36:03.712Z,101024.55
2023-04-18T06:38:35.559Z,101023.25
2023-04-18T06:41:07.590Z,101027.54
2023-04-18T06:43:39.970Z,101027.91
2023-04-18T06:46:14.207Z,101023.05
2023-04-18T06:48:45.948Z,101030.84
2023-04-18T06:51:17.168Z,101029.36
2023-04-18T06:53:48.704Z,101025.88
2023-04-18T06:56:20.530Z,101025.48
2023-04-18T06:58:53.220Z,101029.23
2023-04-18T07:01:25.062Z,101029.12
2023-04-18T07:03:56.792Z,101030.54
2023-04-18T07:06:28.415Z,101029.48
2023-04-18T07:09:01.432Z,101028.39
2023-04-18T07:11:33.367Z,101031.16
2023-04-18T07:14:04.759Z,101034.23
2023-04-18T07:16:36.462Z,101030.57
2023-04-18T07:19:08.503Z,101035.46
2023-04-18T07:21:40.699Z,101034.55
2023-04-18T07:24:13.216Z,101034.95
2023-04-18T07:26:45.463Z,101038.88
2023-04-18T07:29:17.232Z,101038.76
2023-04-18T07:31:48.482Z,101041.33
2023-04-18T07:34:19.876Z,101044.05
2023-04-18T07:36:51.439Z,101047.67
2023-04-18T07:39:22.997Z,101045.41
2023-04-18T07:41:54.314Z,101045.29
2023-04-18T07:44:25.518Z,101045.56
2023-04-18T07:46:56.996Z,101050.70
2023-04-18T07:49:29.342Z,101049.98
2023-04-18T07:52:00.697Z,101055.13
2023-04-18T07:54:32.420Z,101051.77
2023-04-18T07:57:03.794Z,101052.10
2023-04-18T07:59:35.290Z,101056.41
2023-04-18T08:02:06.931Z,101049.41
2023-04-18T08:04:38.737Z,101049.61
2023-04-18T08:07:10.350Z,101055.16
2023-04-18T08:09:41.495Z,101052.80
2023-04-18T08:12:12.963Z,101062.73
2023-04-18T08:14:44.479Z,101062.41
2023-04-18T08:17:15.916Z,101062.02
2023-04-18T08:19:47.534Z,101061.30
2023-04-18T08:22:19.472Z,101061.77
2023-04-18T08:27:29.010Z,101065.55
2023-04-18T08:30:00.831Z,101068.88
2023-04-18T08:32:32.667Z,101070.36
2023-04-18T08:35:04.992Z,101070.95
2023-04-18T08:37:36.504Z,101074.81
2023-04-18T08:40:09.857Z,101078.58
2023-04-18T08:42:44.440Z,101075.13
2023-04-18T08:45:17.623Z,101085.61
2023-04-18T08:47:49.668Z,101084.10
2023-04-18T08:50:21.771Z,101083.90
2023-04-18T08:52:56.286Z,101090.23
2023-04-18T08:55:28.089Z,101089.63
2023-04-18T08:57:59.834Z,101087.25
2023-04-18T09:00:32.740Z,101087.83
2023-04-18T09:03:04.446Z,101094.33
2023-04-18T09:05:36.016Z,101091.60
2023-04-18T09:08:25.442Z,101092.14
2023-04-18T09:10:57.210Z,101088.00
2023-04-18T09:13:46.355Z,101088.07
2023-04-18T09:16:19.539Z,101090.75
2023-04-18T09:19:15.106Z,101089.52
2023-04-18T09:21:49.019Z,101096.32
2023-04-18T09:24:30.057Z,101100.95
2023-04-18T09:27:01.576Z,101095.80
2023-04-18T09:29:47.550Z,101099.00
2023-04-18T09:32:27.535Z,101099.52
2023-04-18T09:35:03.922Z,101098.86
2023-04-18T09:37:36.672Z,101100.58
2023-04-18T09:40:20.029Z,101094.10
2023-04-18T09:42:51.840Z,101093.95
2023-04-18T09:45:24.051Z,101091.52
2023-04-18T09:47:56.171Z,101094.17
2023-04-18T09:50:27.975Z,101092.11
2023-04-18T09:53:01.038Z,101091.19
2023-04-18T09:55:33.746Z,101093.89
2023-04-18T09:58:08.814Z,101091.91
2023-04-18T10:00:41.353Z,101088.75
2023-04-18T10:03:16.286Z,101093.98
2023-04-18T10:05:48.855Z,101099.91
2023-04-18T10:08:20.197Z,101099.00
2023-04-18T10:10:51.796Z,101095.73
2023-04-18T10:13:23.985Z,101097.20
2023-04-18T10:15:56.588Z,101094.97
2023-04-18T10:18:28.009Z,101097.86
2023-04-18T10:21:05.278Z,101099.88
2023-04-18T10:23:40.847Z,101097.65
2023-04-18T10:26:13.194Z,101097.66
2023-04-18T10:28:57.020Z,101096.33
2023-04-18T10:31:29.673Z,101097.08
2023-04-18T10:34:05.516Z,101097.02
2023-04-18T10:36:37.388Z,101097.20
2023-04-18T10:39:25.848Z,101093.61
2023-04-18T10:41:56.979Z,101091.91
2023-04-18T10:44:28.454Z,101092.85
2023-04-18T10:47:25.776Z,101090.30
2023-04-18T10:50:01.700Z,101087.88
2023-04-18T10:52:36.882Z,101085.19
2023-04-18T10:55:18.632Z,101087.95
2023-04-18T10:57:51.588Z,101083.52
2023-04-18T11:00:26.161Z,101083.59
2023-04-18T11:03:00.807Z,101083.64
2023-04-18T11:05:32.894Z,101078.50
2023-04-18T11:08:04.728Z,101076.20
2023-04-18T11:10:35.897Z,101076.02
2023-04-18T11:13:08.525Z,101074.46
2023-04-18T11:15:40.047Z,101072.91
2023-04-18T11:18:12.808Z,101070.98
2023-04-18T11:20:50.624Z,101072.04
2023-04-18T11:23:25.125Z,101073.64
2023-04-18T11:25:58.311Z,101075.14
2023-04-18T11:28:29.802Z,101073.65
2023-04-18T11:31:02.907Z,101071.92
2023-04-18T11:33:34.682Z,101075.16
2023-04-18T11:36:06.881Z,101079.01
2023-04-18T11:38:41.498Z,101078.73
2023-04-18T11:41:17.133Z,101078.00
2023-04-18T11:43:49.118Z,101075.38
2023-04-18T11:46:20.827Z,101080.91
2023-04-18T11:48:52.212Z,101079.36
2023-04-18T11:51:38.804Z,101078.52
2023-04-18T11:54:40.115Z,101082.46
2023-04-18T11:57:23.949Z,101080.95
2023-04-18T11:59:57.935Z,101080.13
2023-04-18T12:02:42.227Z,101081.61
2023-04-18T12:05:25.343Z,101085.45
2023-04-18T12:07:57.223Z,101086.30
2023-04-18T12:10:30.262Z,101085.40
2023-04-18T12:13:02.614Z,101090.77
2023-04-18T12:15:34.336Z,101089.69
2023-04-18T12:18:08.858Z,101086.17
2023-04-18T12:20:46.483Z,101091.44
2023-04-18T12:23:33.063Z,101093.81
2023-04-18T12:26:06.559Z,101099.30
2023-04-18T12:28:38.736Z,101096.34
2023-04-18T12:31:10.525Z,101097.52
2023-04-18T12:33:41.578Z,101097.59
2023-04-18T12:36:14.975Z,101098.56
2023-04-18T12:38:47.157Z,101098.85
2023-04-18T12:41:18.391Z,101095.36
2023-04-18T12:43:49.645Z,101100.45
2023-04-18T12:46:21.384Z,101098.75
2023-04-18T12:48:53.065Z,101097.55
2023-04-18T12:51:24.695Z,101099.95
2023-04-18T12:53:56.796Z,101095.09
2023-04-18T12:56:28.446Z,101097.81
2023-04-18T12:58:59.896Z,101098.62
2023-04-18T13:01:31.169Z,101091.87
2023-04-18T13:04:11.658Z,101088.29
2023-04-18T13:06:44.297Z,101085.70
2023-04-18T13:09:16.779Z,101089.26
2023-04-18T13:11:49.634Z,101087.39
2023-04-18T13:14:21.519Z,101089.40
2023-04-18T13:16:52.777Z,101091.92
2023-04-18T13:19:24.671Z,101089.88
2023-04-18T13:21:56.185Z,101088.34
2023-04-18T13:24:28.040Z,101089.94
2023-04-18T13:26:59.482Z,101090.50
2023-04-18T13:29:31.224Z,101090.31
2023-04-18T13:32:02.798Z,101087.31
2023-04-18T13:34:34.721Z,101082.64
2023-04-18T13:37:06.449Z,101082.85
2023-04-18T13:39:38.518Z,101077.16
2023-04-18T13:42:10.561Z,101077.83
2023-04-18T13:44:42.194Z,101079.79
2023-04-18T13:47:13.458Z,101074.33
2023-04-18T13:49:44.952Z,101074.05
2023-04-18T13:52:16.442Z,101066.33
2023-04-18T13:54:48.431Z,101067.22
2023-04-18T13:57:20.273Z,101064.41
2023-04-18T13:59:52.148Z,101055.66
2023-04-18T14:02:23.636Z,101058.91
2023-04-18T14:04:55.451Z,101055.50
2023-04-18T14:07:27.108Z,101051.77
2023-04-18T14:09:58.784Z,101053.86
2023-04-18T14:12:31.546Z,101056.56
2023-04-18T14:15:03.621Z,101055.21
2023-04-18T14:17:40.050Z,101054.13
2023-04-18T14:20:12.556Z,101061.80
2023-04-18T14:22:47.688Z,101059.37
2023-04-18T14:25:19.539Z,101062.41
2023-04-18T14:28:04.620Z,101062.70
2023-04-18T14:30:36.684Z,101062.72
2023-04-18T14:33:09.768Z,101062.66
2023-04-18T14:35:42.133Z,101064.89
2023-04-18T14:38:14.181Z,101063.92
2023-04-18T14:40:45.793Z,101062.44
2023-04-18T14:43:17.201Z,101061.58
2023-04-18T14:45:48.572Z,101059.34
2023-04-18T14:48:20.318Z,101057.60
2023-04-18T14:50:59.328Z,101062.53
2023-04-18T14:53:31.246Z,101066.83
2023-04-18T14:56:03.314Z,101061.80
2023-04-18T14:58:35.490Z,101062.86
2023-04-18T15:01:08.179Z,101063.35
2023-04-18T15:03:41.674Z,101061.94
2023-04-18T15:06:13.775Z,101060.39
2023-04-18T15:08:45.875Z,101058.59
2023-04-18T15:11:17.540Z,101060.36
2023-04-18T15:13:50.200Z,101059.52
2023-04-18T15:16:21.611Z,101059.14
2023-04-18T15:18:53.174Z,101054.95
2023-04-18T15:21:25.687Z,101059.38
2023-04-18T15:23:57.466Z,101059.99
2023-04-18T15:26:30.465Z,101056.71
2023-04-18T15:29:05.243Z,101055.85
2023-04-18T15:31:38.977Z,101056.25
2023-04-18T15:34:11.778Z,101058.80
2023-04-18T15:36:43.821Z,101058.60
2023-04-18T15:39:18.349Z,101059.91
2023-04-18T15:41:52.808Z,101057.46
2023-04-18T15:44:24.567Z,101055.86
2023-04-18T15:46:56.101Z,101055.04
2023-04-18T15:49:27.715Z,101051.94
2023-04-18T15:51:59.282Z,101056.16
2023-04-18T15:54:30.921Z,101054.48
2023-04-18T15:57:02.767Z,101057.18
2023-04-18T15:59:34.039Z,101059.38
2023-04-18T16:02:06.829Z,101063.23
2023-04-18T16:04:38.681Z,101063.68
2023-04-18T16:07:10.621Z,101059.95
2023-04-18T16:09:41.799Z,101060.05
2023-04-18T16:12:13.750Z,101058.08
2023-04-18T16:14:45.834Z,101056.36
2023-04-18T16:17:17.517Z,101057.91
2023-04-18T16:19:50.277Z,101061.16
2023-04-18T16:22:21.413Z,101059.11
2023-04-18T16:24:53.792Z,101056.41
2023-04-18T16:27:25.790Z,101058.77
2023-04-18T16:29:57.425Z,101054.41
2023-04-18T16:32:28.694Z,101060.52
2023-04-18T16:35:00.389Z,101055.16
2023-04-18T16:37:31.675Z,101053.54
2023-04-18T16:40:03.522Z,101058.86
2023-04-18T16:42:35.338Z,101058.06
2023-04-18T16:45:08.078Z,101057.45
2023-04-18T16:47:39.852Z,101057.25
2023-04-18T16:50:12.950Z,101061.52
2023-04-18T16:52:44.928Z,101064.33
2023-04-18T16:55:16.683Z,101063.67
2023-04-18T16:57:48.210Z,101065.30
2023-04-18T17:00:20.464Z,101064.80
2023-04-18T17:02:52.012Z,101063.81
2023-04-18T17:05:23.941Z,101066.69
2023-04-18T17:07:56.223Z,101061.70
2023-04-18T17:10:28.246Z,101061.47
2023-04-18T17:13:00.987Z,101060.06
2023-04-18T17:15:32.836Z,101062.44
2023-04-18T17:18:04.604Z,101058.34
2023-04-18T17:20:36.490Z,101059.79
2023-04-18T17:23:07.822Z,101059.25
2023-04-18T17:25:39.013Z,101057.73
2023-04-18T17:28:11.998Z,101059.31
2023-04-18T17:30:44.325Z,101053.76
2023-04-18T17:33:15.784Z,101060.61
2023-04-18T17:35:48.230Z,101062.39
2023-04-18T17:38:19.870Z,101063.38
2023-04-18T17:40:58.641Z,101061.65
2023-04-18T17:43:30.365Z,101064.13
2023-04-18T17:46:03.943Z,101065.46
2023-04-18T17:48:35.469Z,101069.56
2023-04-18T17:51:07.227Z,101072.17
2023-04-18T17:53:38.812Z,101074.25
2023-04-18T17:56:11.093Z,101080.11
2023-04-18T17:58:42.900Z,101078.24
2023-04-18T18:01:19.045Z,101077.34
2023-04-18T18:03:53.981Z,101079.60
2023-04-18T18:06:27.989Z,101079.16
2023-04-18T18:08:59.601Z,101081.54
2023-04-18T18:11:31.304Z,101080.12
2023-04-18T18:14:02.663Z,101083.78
2023-04-18T18:16:34.118Z,101084.05
2023-04-18T18:19:07.607Z,101082.56
2023-04-18T18:21:39.138Z,101085.39
2023-04-18T18:24:11.438Z,101088.30
2023-04-18T18:26:43.234Z,101096.42
2023-04-18T18:29:15.341Z,101098.57
2023-04-18T18:31:47.040Z,101099.83
2023-04-18T18:34:20.127Z,101105.17
2023-04-18T18:36:51.751Z,101103.89
2023-04-18T18:39:23.322Z,101106.31
2023-04-18T18:41:54.592Z,101109.10
2023-04-18T18:44:26.590Z,101117.59
2023-04-18T18:47:00.113Z,101118.24
2023-04-18T18:49:31.723Z,101120.87
2023-04-18T18:52:05.019Z,101121.67
2023-04-18T18:54:37.077Z,101119.11
2023-04-18T18:57:09.220Z,101121.64
2023-04-18T18:59:41.628Z,101120.77
2023-04-18T19:02:13.256Z,101120.19
2023-04-18T19:04:45.185Z,101125.69
2023-04-18T19:07:16.856Z,101124.03
2023-04-18T19:09:48.321Z,101127.27
2023-04-18T19:12:20.204Z,101131.29
2023-04-18T19:14:52.509Z,101129.20
2023-04-18T19:17:24.911Z,101133.83
2023-04-18T19:19:58.226Z,101130.14
2023-04-18T19:22:29.602Z,101131.34
2023-04-18T19:25:01.329Z,101133.08
2023-04-18T19:27:32.657Z,101135.09
2023-04-18T19:30:03.906Z,101137.08
2023-04-18T19:32:36.272Z,101135.77
2023-04-18T19:35:09.957Z,101138.70
2023-04-18T19:37:41.696Z,101144.03
2023-04-18T19:40:14.418Z,101149.33
2023-04-18T19:42:46.209Z,101149.39
2023-04-18T19:45:17.962Z,101154.19
2023-04-18T19:47:49.271Z,101152.43
2023-04-18T19:50:20.841Z,101155.98
2023-04-18T19:52:52.381Z,101159.13
2023-04-18T19:55:24.482Z,101163.80
2023-04-18T19:57:57.125Z,101161.84
2023-04-18T20:00:29.489Z,101167.08
2023-04-18T20:03:01.003Z,101168.65
2023-04-18T20:05:32.415Z,101174.30
2023-04-18T20:08:04.709Z,101175.40
2023-04-18T20:10:37.552Z,101172.95
2023-04-18T20:13:09.283Z,101177.61
2023-04-18T20:15:41.068Z,101182.70
2023-04-18T20:18:12.840Z,101183.19
2023-04-18T20:20:44.426Z,101183.86
2023-04-18T20:23:15.783Z,101187.52
2023-04-18T20:25:47.164Z,101185.38
2023-04-18T20:28:19.067Z,101182.91
2023-04-18T20:30:50.632Z,101187.00
2023-04-18T20:33:22.732Z,101184.70
2023-04-18T20:35:55.017Z,101185.88
2023-04-18T20:38:29.968Z,101180.76
2023-04-18T20:41:01.237Z,101184.51
2023-04-18T20:43:36.894Z,101189.48
2023-04-18T20:46:08.546Z,101189.11
2023-04-18T20:48:40.135Z,101188.21
2023-04-18T20:51:11.781Z,101187.45
2023-04-18T20:53:43.312Z,101188.12
2023-04-18T20:56:14.744Z,101189.48
2023-04-18T20:58:46.445Z,101190.88
2023-04-18T21:01:18.515Z,101197.70
2023-04-18T21:03:50.601Z,101202.03
2023-04-18T21:06:22.405Z,101205.98
2023-04-18T21:08:54.379Z,101208.13
2023-04-18T21:11:26.228Z,101213.60
2023-04-18T21:13:57.738Z,101211.78
2023-04-18T21:16:29.675Z,101213.81
2023-04-18T21:19:01.568Z,101216.83
2023-04-18T21:21:34.585Z,101215.77
2023-04-18T21:24:06.899Z,101214.48
2023-04-18T21:26:38.712Z,101214.77
2023-04-18T21:29:10.275Z,101216.98
2023-04-18T21:31:41.801Z,101219.55
2023-04-18T21:34:13.785Z,101218.81
2023-04-18T21:36:44.987Z,101221.54
2023-04-18T21:39:16.782Z,101223.48
2023-04-18T21:41:48.350Z,101226.71
2023-04-18T21:44:19.905Z,101225.90
2023-04-18T21:46:51.248Z,101224.80
2023-04-18T21:49:22.943Z,101227.11
2023-04-18T21:51:55.206Z,101224.77
2023-04-18T21:54:26.836Z,101225.58
2023-04-18T21:56:58.505Z,101226.73
2023-04-18T21:59:30.152Z,101228.88
2023-04-18T22:02:01.621Z,101231.69
2023-04-18T22:04:34.325Z,101232.88
2023-04-18T22:07:06.641Z,101237.61
2023-04-18T22:09:39.058Z,101242.11
2023-04-18T22:12:11.693Z,101243.96
2023-04-18T22:14:48.547Z,101249.61
2023-04-18T22:17:21.159Z,101248.30
2023-04-18T22:19:53.783Z,101250.74
2023-04-18T22:22:25.180Z,101251.36
2023-04-18T22:24:56.551Z,101254.27
2023-04-18T22:27:28.278Z,101248.23
2023-04-18T22:30:00.027Z,101248.69
2023-04-18T22:32:31.049Z,101246.99
2023-04-18T22:35:03.249Z,101249.47
2023-04-18T22:37:34.833Z,101254.15
2023-04-18T22:40:07.817Z,101261.92
2023-04-18T22:42:39.035Z,101264.52
2023-04-18T22:45:12.442Z,101263.45
2023-04-18T22:47:44.116Z,101268.44
2023-04-18T22:50:16.475Z,101269.23
2023-04-18T22:52:48.060Z,101271.27
2023-04-18T22:55:20.418Z,101271.59
2023-04-18T22:57:51.652Z,101270.04
2023-04-18T23:00:23.753Z,101275.28
2023-04-18T23:02:55.163Z,101277.73
2023-04-18T23:05:27.413Z,101279.83
2023-04-18T23:08:00.366Z,101281.72
2023-04-18T23:10:32.478Z,101284.35
2023-04-18T23:13:03.953Z,101284.89
2023-04-18T23:15:35.841Z,101283.56
2023-04-18T23:18:07.714Z,101283.15
2023-04-18T23:20:39.114Z,101287.69
2023-04-18T23:23:10.592Z,101286.86
2023-04-18T23:25:42.239Z,101287.48
2023-04-18T23:28:13.914Z,101291.30
2023-04-18T23:30:45.755Z,101285.42
2023-04-18T23:33:17.860Z,101289.16
2023-04-18T23:35:49.082Z,101291.46
2023-04-18T23:38:20.403Z,101293.48
2023-04-18T23:40:52.064Z,101294.35
2023-04-18T23:43:23.665Z,101291.45
2023-04-18T23:45:55.217Z,101291.05
2023-04-18T23:48:27.312Z,101293.76
2023-04-18T23:50:58.602Z,101295.46
2023-04-18T23:53:30.074Z,101296.77
2023-04-18T23:56:01.282Z,101295.75
2023-04-18T23:58:33.765Z,101294.64
